createdAt,value
2019-01-07T00:00:21.877Z,1023.68
2019-01-07T00:02:21.905Z,1023.62
2019-01-07T00:03:21.918Z,1023.69
2019-01-07T00:04:21.933Z,1023.69
2019-01-07T00:05:21.945Z,1023.69
2019-01-07T00:06:21.959Z,1023.71
2019-01-07T00:07:22.071Z,1023.73
2019-01-07T00:08:21.987Z,1023.73
2019-01-07T00:09:21.999Z,1023.73
2019-01-07T00:10:22.013Z,1023.74
2019-01-07T00:11:22.025Z,1023.76
2019-01-07T00:12:22.039Z,1023.8
2019-01-07T00:13:22.053Z,1023.78
2019-01-07T00:14:22.067Z,1023.78
2019-01-07T00:15:22.080Z,1023.82
2019-01-07T00:17:22.107Z,1023.82
2019-01-07T00:18:22.120Z,1023.86
2019-01-07T00:19:22.134Z,1023.79
2019-01-07T00:20:22.147Z,1023.81
2019-01-07T00:21:22.161Z,1023.8
2019-01-07T00:22:22.175Z,1023.81
2019-01-07T00:23:22.187Z,1023.83
2019-01-07T00:24:22.201Z,1023.79
2019-01-07T00:25:22.214Z,1023.85
2019-01-07T00:26:22.228Z,1023.84
2019-01-07T00:27:22.241Z,1023.86
2019-01-07T00:28:22.254Z,1023.86
2019-01-07T00:29:22.267Z,1023.86
2019-01-07T00:30:22.281Z,1023.81
2019-01-07T00:31:22.294Z,1023.8
2019-01-07T00:32:22.308Z,1023.84
2019-01-07T00:33:22.320Z,1023.79
2019-01-07T00:34:22.337Z,1023.78
2019-01-07T00:35:22.347Z,1023.8
2019-01-07T00:36:22.361Z,1023.82
2019-01-07T00:37:22.374Z,1023.81
2019-01-07T00:38:22.388Z,1023.84
2019-01-07T00:39:22.402Z,1023.83
2019-01-07T00:40:22.415Z,1023.82
2019-01-07T00:41:22.428Z,1023.82
2019-01-07T00:42:22.441Z,1023.83
2019-01-07T00:43:22.455Z,1023.82
2019-01-07T00:44:22.468Z,1023.79
2019-01-07T00:45:22.483Z,1023.81
2019-01-07T00:46:22.496Z,1023.8
2019-01-07T00:47:22.508Z,1023.83
2019-01-07T00:49:22.535Z,1023.83
2019-01-07T00:50:22.548Z,1023.81
2019-01-07T00:51:22.561Z,1023.81
2019-01-07T00:52:22.575Z,1023.78
2019-01-07T00:53:22.588Z,1023.8
2019-01-07T00:54:22.602Z,1023.77
2019-01-07T00:55:22.615Z,1023.76
2019-01-07T00:56:22.628Z,1023.74
2019-01-07T00:57:22.642Z,1023.68
2019-01-07T00:58:22.656Z,1023.69
2019-01-07T00:59:22.769Z,1023.72
2019-01-07T01:00:22.682Z,1023.72
2019-01-07T01:01:22.696Z,1023.71
2019-01-07T01:02:22.709Z,1023.69
2019-01-07T01:03:22.721Z,1023.68
2019-01-07T01:05:22.748Z,1023.75
2019-01-07T01:06:22.761Z,1023.76
2019-01-07T01:07:22.775Z,1023.76
2019-01-07T01:08:22.788Z,1023.76
2019-01-07T01:09:22.800Z,1023.74
2019-01-07T01:10:22.814Z,1023.75
2019-01-07T01:11:22.828Z,1023.75
2019-01-07T01:12:22.841Z,1023.75
2019-01-07T01:13:22.854Z,1023.78
2019-01-07T01:14:22.868Z,1023.77
2019-01-07T01:15:22.881Z,1023.82
2019-01-07T01:16:22.899Z,1023.76
2019-01-07T01:17:22.907Z,1023.74
2019-01-07T01:18:22.920Z,1023.71
2019-01-07T01:19:22.934Z,1023.76
2019-01-07T01:21:22.959Z,1023.78
2019-01-07T01:22:22.974Z,1023.79
2019-01-07T01:23:22.988Z,1023.83
2019-01-07T01:24:23.001Z,1023.8
2019-01-07T01:25:23.013Z,1023.82
2019-01-07T01:26:23.026Z,1023.83
2019-01-07T01:27:23.040Z,1023.81
2019-01-07T01:28:23.052Z,1023.8
2019-01-07T01:29:23.066Z,1023.84
2019-01-07T01:30:23.080Z,1023.83
2019-01-07T01:31:23.092Z,1023.83
2019-01-07T01:32:23.106Z,1023.85
2019-01-07T01:33:23.119Z,1023.82
2019-01-07T01:34:23.132Z,1023.82
2019-01-07T01:35:23.145Z,1023.81
2019-01-07T01:37:23.173Z,1023.83
2019-01-07T01:38:23.186Z,1023.83
2019-01-07T01:39:23.198Z,1023.84
2019-01-07T01:40:23.211Z,1023.83
2019-01-07T01:41:23.225Z,1023.83
2019-01-07T01:42:23.238Z,1023.82
2019-01-07T01:43:23.251Z,1023.83
2019-01-07T01:44:23.265Z,1023.8
2019-01-07T01:45:23.278Z,1023.82
2019-01-07T01:46:23.291Z,1023.8
2019-01-07T01:47:23.305Z,1023.82
2019-01-07T01:48:23.318Z,1023.85
2019-01-07T01:49:23.331Z,1023.94
2019-01-07T01:50:23.344Z,1023.92
2019-01-07T01:52:23.372Z,1023.92
2019-01-07T01:53:23.385Z,1023.94
2019-01-07T01:54:23.397Z,1023.91
2019-01-07T01:55:23.411Z,1023.88
2019-01-07T01:56:23.425Z,1023.89
2019-01-07T01:57:23.439Z,1023.88
2019-01-07T01:58:23.451Z,1023.88
2019-01-07T01:59:23.504Z,1023.91
2019-01-07T02:00:23.477Z,1023.87
2019-01-07T02:01:23.490Z,1023.84
2019-01-07T02:02:23.505Z,1023.84
2019-01-07T02:03:23.517Z,1023.82
2019-01-07T02:04:23.529Z,1023.81
2019-01-07T02:05:23.543Z,1023.77
2019-01-07T02:06:23.556Z,1023.76
2019-01-07T02:07:23.570Z,1023.78
2019-01-07T02:08:23.582Z,1023.82
2019-01-07T02:09:23.597Z,1023.85
2019-01-07T02:10:23.609Z,1023.87
2019-01-07T02:11:23.625Z,1023.87
2019-01-07T02:12:23.635Z,1023.87
2019-01-07T02:13:23.650Z,1023.83
2019-01-07T02:14:23.662Z,1023.79
2019-01-07T02:15:23.675Z,1023.8
2019-01-07T02:16:23.688Z,1023.89
2019-01-07T02:17:23.701Z,1023.8
2019-01-07T02:18:23.715Z,1023.8
2019-01-07T02:19:23.728Z,1023.75
2019-01-07T02:20:23.745Z,1023.73
2019-01-07T02:21:23.754Z,1023.75
2019-01-07T02:22:23.767Z,1023.72
2019-01-07T02:24:23.793Z,1023.7
2019-01-07T02:25:23.807Z,1023.65
2019-01-07T02:26:23.820Z,1023.66
2019-01-07T02:27:23.833Z,1023.64
2019-01-07T02:28:23.849Z,1023.61
2019-01-07T02:29:23.861Z,1023.6
2019-01-07T02:30:23.876Z,1023.58
2019-01-07T02:31:23.888Z,1023.58
2019-01-07T02:32:23.900Z,1023.59
2019-01-07T02:33:23.912Z,1023.56
2019-01-07T02:34:23.925Z,1023.57
2019-01-07T02:35:23.939Z,1023.59
2019-01-07T02:36:23.953Z,1023.6
2019-01-07T02:37:23.965Z,1023.61
2019-01-07T02:38:23.979Z,1023.63
2019-01-07T02:40:24.006Z,1023.59
2019-01-07T02:41:24.021Z,1023.58
2019-01-07T02:42:24.034Z,1023.59
2019-01-07T02:43:24.044Z,1023.59
2019-01-07T02:44:24.057Z,1023.56
2019-01-07T02:45:24.070Z,1023.56
2019-01-07T02:46:24.085Z,1023.57
2019-01-07T02:47:24.097Z,1023.57
2019-01-07T02:48:24.109Z,1023.55
2019-01-07T02:49:24.122Z,1023.57
2019-01-07T02:50:24.136Z,1023.55
2019-01-07T02:51:24.152Z,1023.55
2019-01-07T02:52:24.161Z,1023.52
2019-01-07T02:53:24.176Z,1023.49
2019-01-07T02:54:24.189Z,1023.46
2019-01-07T02:56:24.215Z,1023.52
2019-01-07T02:57:24.228Z,1023.48
2019-01-07T02:58:24.241Z,1023.49
2019-01-07T02:59:24.253Z,1023.49
2019-01-07T03:00:24.267Z,1023.48
2019-01-07T03:01:24.280Z,1023.42
2019-01-07T03:02:24.294Z,1023.46
2019-01-07T03:03:24.306Z,1023.44
2019-01-07T03:04:24.320Z,1023.45
2019-01-07T03:05:24.332Z,1023.49
2019-01-07T03:06:24.345Z,1023.49
2019-01-07T03:07:24.363Z,1023.47
2019-01-07T03:08:24.373Z,1023.44
2019-01-07T03:09:24.492Z,1023.45
2019-01-07T03:10:24.398Z,1023.43
2019-01-07T03:12:24.424Z,1023.41
2019-01-07T03:13:24.438Z,1023.37
2019-01-07T03:14:24.450Z,1023.37
2019-01-07T03:15:24.463Z,1023.36
2019-01-07T03:16:24.483Z,1023.36
2019-01-07T03:17:24.489Z,1023.29
2019-01-07T03:18:24.503Z,1023.33
2019-01-07T03:19:24.515Z,1023.3
2019-01-07T03:20:24.537Z,1023.28
2019-01-07T03:21:24.541Z,1023.31
2019-01-07T03:22:24.555Z,1023.3
2019-01-07T03:23:24.579Z,1023.32
2019-01-07T03:24:24.581Z,1023.3
2019-01-07T03:25:24.595Z,1023.27
2019-01-07T03:27:24.621Z,1023.3
2019-01-07T03:28:24.634Z,1023.23
2019-01-07T03:29:24.647Z,1023.27
2019-01-07T03:30:24.662Z,1023.27
2019-01-07T03:31:24.675Z,1023.23
2019-01-07T03:32:24.689Z,1023.25
2019-01-07T03:33:24.699Z,1023.24
2019-01-07T03:34:24.712Z,1023.23
2019-01-07T03:35:24.725Z,1023.24
2019-01-07T03:36:24.738Z,1023.24
2019-01-07T03:37:24.752Z,1023.25
2019-01-07T03:38:24.767Z,1023.23
2019-01-07T03:39:24.778Z,1023.18
2019-01-07T03:40:24.790Z,1023.17
2019-01-07T03:41:24.804Z,1023.19
2019-01-07T03:42:24.816Z,1023.18
2019-01-07T03:43:24.829Z,1023.19
2019-01-07T03:44:24.843Z,1023.2
2019-01-07T03:45:24.856Z,1023.18
2019-01-07T03:46:24.869Z,1023.19
2019-01-07T03:47:24.882Z,1023.2
2019-01-07T03:48:24.895Z,1023.22
2019-01-07T03:49:24.909Z,1023.2
2019-01-07T03:50:24.921Z,1023.19
2019-01-07T03:51:24.934Z,1023.17
2019-01-07T03:52:24.947Z,1023.23
2019-01-07T03:53:24.961Z,1023.2
2019-01-07T03:54:24.973Z,1023.17
2019-01-07T03:55:24.986Z,1023.2
2019-01-07T03:56:25.001Z,1023.21
2019-01-07T03:57:25.012Z,1023.21
2019-01-07T03:59:25.040Z,1023.17
2019-01-07T04:00:25.052Z,1023.2
2019-01-07T04:01:25.064Z,1023.21
2019-01-07T04:02:25.077Z,1023.22
2019-01-07T04:03:25.093Z,1023.2
2019-01-07T04:04:25.104Z,1023.14
2019-01-07T04:05:25.116Z,1023.19
2019-01-07T04:06:25.132Z,1023.17
2019-01-07T04:07:25.142Z,1023.21
2019-01-07T04:08:25.155Z,1023.19
2019-01-07T04:09:25.171Z,1023.23
2019-01-07T04:10:25.182Z,1023.21
2019-01-07T04:11:25.195Z,1023.24
2019-01-07T04:12:25.207Z,1023.18
2019-01-07T04:13:25.221Z,1023.16
2019-01-07T04:15:25.248Z,1023.14
2019-01-07T04:16:25.259Z,1023.19
2019-01-07T04:17:25.275Z,1023.16
2019-01-07T04:18:25.287Z,1023.18
2019-01-07T04:19:25.298Z,1023.15
2019-01-07T04:20:25.311Z,1023.12
2019-01-07T04:21:25.326Z,1023.11
2019-01-07T04:22:25.338Z,1023.11
2019-01-07T04:23:25.351Z,1023.08
2019-01-07T04:24:25.367Z,1023.11
2019-01-07T04:25:25.378Z,1023.06
2019-01-07T04:26:25.396Z,1023.08
2019-01-07T04:27:25.403Z,1023.07
2019-01-07T04:28:25.417Z,1023.07
2019-01-07T04:29:25.431Z,1023.04
2019-01-07T04:31:25.456Z,1023.06
2019-01-07T04:32:25.470Z,1023.08
2019-01-07T04:33:25.482Z,1023.06
2019-01-07T04:34:25.495Z,1023.06
2019-01-07T04:35:25.510Z,1023.06
2019-01-07T04:36:25.522Z,1023.04
2019-01-07T04:37:25.535Z,1023.03
2019-01-07T04:38:25.547Z,1023.02
2019-01-07T04:39:25.561Z,1023
2019-01-07T04:40:25.575Z,1023.02
2019-01-07T04:41:25.587Z,1023
2019-01-07T04:42:25.600Z,1022.99
2019-01-07T04:43:25.614Z,1022.97
2019-01-07T04:44:25.626Z,1022.97
2019-01-07T04:45:25.639Z,1022.94
2019-01-07T04:47:25.665Z,1022.9
2019-01-07T04:48:25.678Z,1022.88
2019-01-07T04:49:25.691Z,1022.87
2019-01-07T04:50:25.704Z,1022.9
2019-01-07T04:51:25.718Z,1022.88
2019-01-07T04:52:25.730Z,1022.84
2019-01-07T04:53:25.743Z,1022.84
2019-01-07T04:54:25.756Z,1022.85
2019-01-07T04:55:25.770Z,1022.86
2019-01-07T04:56:25.781Z,1022.86
2019-01-07T04:57:25.795Z,1022.88
2019-01-07T04:58:25.808Z,1022.83
2019-01-07T04:59:25.824Z,1022.87
2019-01-07T05:00:25.835Z,1022.87
2019-01-07T05:02:25.866Z,1022.88
2019-01-07T05:03:25.874Z,1022.88
2019-01-07T05:04:25.887Z,1022.88
2019-01-07T05:05:25.901Z,1022.86
2019-01-07T05:06:25.915Z,1022.86
2019-01-07T05:07:25.926Z,1022.88
2019-01-07T05:08:25.939Z,1022.87
2019-01-07T05:09:25.953Z,1022.89
2019-01-07T05:10:25.965Z,1022.85
2019-01-07T05:11:25.978Z,1022.85
2019-01-07T05:12:25.992Z,1022.87
2019-01-07T05:13:26.005Z,1022.9
2019-01-07T05:14:26.018Z,1022.93
2019-01-07T05:15:26.033Z,1022.94
2019-01-07T05:16:26.045Z,1022.95
2019-01-07T05:17:26.057Z,1022.99
2019-01-07T05:18:26.070Z,1022.93
2019-01-07T05:19:26.086Z,1022.94
2019-01-07T05:20:26.097Z,1022.9
2019-01-07T05:21:26.109Z,1022.85
2019-01-07T05:22:26.123Z,1022.89
2019-01-07T05:23:26.137Z,1022.9
2019-01-07T05:24:26.152Z,1022.9
2019-01-07T05:25:26.164Z,1022.92
2019-01-07T05:26:26.175Z,1022.91
2019-01-07T05:27:26.188Z,1022.88
2019-01-07T05:28:26.201Z,1022.92
2019-01-07T05:29:26.214Z,1022.85
2019-01-07T05:30:26.227Z,1022.89
2019-01-07T05:31:26.249Z,1022.9
2019-01-07T05:32:27.111Z,1022.92
2019-01-07T05:34:26.280Z,1022.92
2019-01-07T05:35:26.294Z,1022.92
2019-01-07T05:36:26.305Z,1022.93
2019-01-07T05:37:26.322Z,1022.9
2019-01-07T05:38:26.332Z,1022.9
2019-01-07T05:39:26.348Z,1022.95
2019-01-07T05:40:26.357Z,1022.88
2019-01-07T05:41:26.373Z,1022.89
2019-01-07T05:42:26.385Z,1022.9
2019-01-07T05:43:26.397Z,1022.91
2019-01-07T05:44:26.411Z,1022.91
2019-01-07T05:45:26.424Z,1022.95
2019-01-07T05:46:26.438Z,1022.9
2019-01-07T05:47:26.450Z,1022.91
2019-01-07T05:48:26.463Z,1022.93
2019-01-07T05:50:26.490Z,1022.89
2019-01-07T05:51:26.503Z,1022.9
2019-01-07T05:52:26.516Z,1022.91
2019-01-07T05:53:26.529Z,1022.92
2019-01-07T05:54:26.543Z,1022.92
2019-01-07T05:55:26.559Z,1022.92
2019-01-07T05:56:26.569Z,1022.88
2019-01-07T05:57:26.582Z,1022.89
2019-01-07T05:58:26.595Z,1022.91
2019-01-07T05:59:26.611Z,1022.88
2019-01-07T06:00:26.621Z,1022.9
2019-01-07T06:01:26.635Z,1022.85
2019-01-07T06:02:26.648Z,1022.85
2019-01-07T06:03:26.664Z,1022.84
2019-01-07T06:04:26.674Z,1022.85
2019-01-07T06:06:26.702Z,1022.85
2019-01-07T06:07:26.713Z,1022.82
2019-01-07T06:08:26.728Z,1022.86
2019-01-07T06:09:26.740Z,1022.85
2019-01-07T06:10:26.764Z,1022.83
2019-01-07T06:11:26.766Z,1022.84
2019-01-07T06:12:26.780Z,1022.84
2019-01-07T06:13:26.795Z,1022.87
2019-01-07T06:14:26.806Z,1022.82
2019-01-07T06:15:26.819Z,1022.83
2019-01-07T06:16:26.832Z,1022.86
2019-01-07T06:17:26.846Z,1022.8
2019-01-07T06:18:26.861Z,1022.8
2019-01-07T06:19:26.872Z,1022.79
2019-01-07T06:20:26.885Z,1022.79
2019-01-07T06:22:26.911Z,1022.82
2019-01-07T06:23:26.925Z,1022.84
2019-01-07T06:24:26.938Z,1022.75
2019-01-07T06:25:27.004Z,1022.8
2019-01-07T06:26:26.964Z,1022.79
2019-01-07T06:27:26.977Z,1022.83
2019-01-07T06:28:27.064Z,1022.79
2019-01-07T06:29:27.005Z,1022.79
2019-01-07T06:30:27.017Z,1022.79
2019-01-07T06:31:27.029Z,1022.79
2019-01-07T06:32:27.043Z,1022.79
2019-01-07T06:33:27.058Z,1022.78
2019-01-07T06:34:27.070Z,1022.76
2019-01-07T06:35:27.090Z,1022.8
2019-01-07T06:37:27.111Z,1022.82
2019-01-07T06:38:27.123Z,1022.81
2019-01-07T06:39:27.136Z,1022.78
2019-01-07T06:40:27.150Z,1022.8
2019-01-07T06:41:27.165Z,1022.81
2019-01-07T06:42:27.176Z,1022.81
2019-01-07T06:43:27.190Z,1022.81
2019-01-07T06:44:27.203Z,1022.81
2019-01-07T06:45:27.215Z,1022.83
2019-01-07T06:46:27.229Z,1022.81
2019-01-07T06:47:27.242Z,1022.85
2019-01-07T06:48:27.257Z,1022.84
2019-01-07T06:49:27.268Z,1022.87
2019-01-07T06:50:27.282Z,1022.84
2019-01-07T06:51:27.296Z,1022.87
2019-01-07T06:52:27.309Z,1022.87
2019-01-07T06:53:27.321Z,1022.86
2019-01-07T06:54:27.335Z,1022.86
2019-01-07T06:55:27.349Z,1022.88
2019-01-07T06:56:27.363Z,1022.85
2019-01-07T06:57:27.374Z,1022.89
2019-01-07T06:58:27.388Z,1022.9
2019-01-07T06:59:27.402Z,1022.92
2019-01-07T07:00:27.414Z,1022.89
2019-01-07T07:01:27.429Z,1022.84
2019-01-07T07:02:27.443Z,1022.86
2019-01-07T07:03:27.457Z,1022.89
2019-01-07T07:04:27.467Z,1022.88
2019-01-07T07:05:27.481Z,1022.87
2019-01-07T07:06:27.494Z,1022.88
2019-01-07T07:07:27.508Z,1022.89
2019-01-07T07:09:27.533Z,1022.88
2019-01-07T07:10:27.547Z,1022.92
2019-01-07T07:11:27.560Z,1022.89
2019-01-07T07:12:27.573Z,1022.87
2019-01-07T07:13:27.597Z,1022.89
2019-01-07T07:14:27.600Z,1022.89
2019-01-07T07:15:27.613Z,1022.86
2019-01-07T07:16:27.626Z,1022.88
2019-01-07T07:17:27.640Z,1022.88
2019-01-07T07:18:27.654Z,1022.89
2019-01-07T07:19:27.666Z,1022.87
2019-01-07T07:20:27.680Z,1022.88
2019-01-07T07:21:27.693Z,1022.84
2019-01-07T07:22:27.706Z,1022.85
2019-01-07T07:23:27.719Z,1022.86
2019-01-07T07:25:27.746Z,1022.84
2019-01-07T07:26:27.760Z,1022.84
2019-01-07T07:27:27.772Z,1022.83
2019-01-07T07:28:27.786Z,1022.87
2019-01-07T07:29:27.799Z,1022.83
2019-01-07T07:30:28.214Z,1022.84
2019-01-07T07:31:27.825Z,1022.83
2019-01-07T07:32:27.840Z,1022.8
2019-01-07T07:33:27.853Z,1022.82
2019-01-07T07:34:27.865Z,1022.84
2019-01-07T07:35:27.879Z,1022.85
2019-01-07T07:36:27.892Z,1022.83
2019-01-07T07:37:27.905Z,1022.83
2019-01-07T07:38:27.918Z,1022.8
2019-01-07T07:39:27.932Z,1022.81
2019-01-07T07:41:27.958Z,1022.86
2019-01-07T07:42:27.972Z,1022.85
2019-01-07T07:43:27.986Z,1022.86
2019-01-07T07:44:28.001Z,1022.86
2019-01-07T07:45:28.012Z,1022.86
2019-01-07T07:46:28.025Z,1022.86
2019-01-07T07:47:28.040Z,1022.87
2019-01-07T07:48:28.051Z,1022.87
2019-01-07T07:49:28.065Z,1022.85
2019-01-07T07:50:28.078Z,1022.9
2019-01-07T07:51:28.091Z,1022.88
2019-01-07T07:52:28.108Z,1022.9
2019-01-07T07:53:28.338Z,1022.9
2019-01-07T07:54:28.131Z,1022.9
2019-01-07T07:55:28.144Z,1022.9
2019-01-07T07:57:28.218Z,1022.9
2019-01-07T07:58:28.185Z,1022.9
2019-01-07T07:59:28.198Z,1022.88
2019-01-07T08:00:28.212Z,1022.89
2019-01-07T08:01:28.227Z,1022.9
2019-01-07T08:02:28.238Z,1022.88
2019-01-07T08:03:28.251Z,1022.93
2019-01-07T08:04:28.265Z,1022.9
2019-01-07T08:05:28.279Z,1022.9
2019-01-07T08:06:28.291Z,1022.92
2019-01-07T08:07:28.305Z,1022.93
2019-01-07T08:08:28.332Z,1022.94
2019-01-07T08:09:28.332Z,1022.92
2019-01-07T08:10:28.346Z,1022.92
2019-01-07T08:12:28.373Z,1022.9
2019-01-07T08:13:28.386Z,1022.92
2019-01-07T08:14:28.400Z,1022.9
2019-01-07T08:15:28.414Z,1022.92
2019-01-07T08:16:28.431Z,1022.93
2019-01-07T08:17:28.440Z,1022.91
2019-01-07T08:18:28.454Z,1022.94
2019-01-07T08:19:28.467Z,1022.93
2019-01-07T08:20:28.481Z,1022.92
2019-01-07T08:21:28.494Z,1022.92
2019-01-07T08:22:28.513Z,1022.89
2019-01-07T08:23:28.525Z,1022.92
2019-01-07T08:24:28.534Z,1022.86
2019-01-07T08:25:28.548Z,1022.85
2019-01-07T08:26:28.572Z,1022.8
2019-01-07T08:27:28.577Z,1022.83
2019-01-07T08:28:28.589Z,1022.83
2019-01-07T08:29:28.606Z,1022.82
2019-01-07T08:30:28.616Z,1022.85
2019-01-07T08:31:28.629Z,1022.79
2019-01-07T08:32:28.643Z,1022.85
2019-01-07T08:33:28.657Z,1022.85
2019-01-07T08:34:28.670Z,1022.83
2019-01-07T08:35:28.683Z,1022.83
2019-01-07T08:36:28.697Z,1022.83
2019-01-07T08:37:28.710Z,1022.81
2019-01-07T08:38:28.725Z,1022.85
2019-01-07T08:39:28.737Z,1022.76
2019-01-07T08:40:28.752Z,1022.79
2019-01-07T08:41:28.765Z,1022.74
2019-01-07T08:42:28.779Z,1022.75
2019-01-07T08:44:28.805Z,1022.73
2019-01-07T08:45:28.819Z,1022.77
2019-01-07T08:46:28.832Z,1022.74
2019-01-07T08:47:29.941Z,1022.74
2019-01-07T08:48:28.860Z,1022.73
2019-01-07T08:49:28.874Z,1022.76
2019-01-07T08:50:28.887Z,1022.76
2019-01-07T08:51:28.901Z,1022.76
2019-01-07T08:52:28.915Z,1022.77
2019-01-07T08:53:28.928Z,1022.77
2019-01-07T08:54:28.942Z,1022.75
2019-01-07T08:55:36.504Z,1022.75
2019-01-07T08:56:28.972Z,1022.73
2019-01-07T08:57:28.987Z,1022.77
2019-01-07T08:58:28.997Z,1022.78
2019-01-07T09:00:29.025Z,1022.77
2019-01-07T09:01:29.037Z,1022.77
2019-01-07T09:02:29.055Z,1022.82
2019-01-07T09:03:29.069Z,1022.8
2019-01-07T09:04:29.079Z,1022.81
2019-01-07T09:05:29.092Z,1022.81
2019-01-07T09:06:29.106Z,1022.77
2019-01-07T09:07:29.121Z,1022.74
2019-01-07T09:08:29.133Z,1022.74
2019-01-07T09:09:29.148Z,1022.75
2019-01-07T09:10:29.162Z,1022.74
2019-01-07T09:11:29.176Z,1022.75
2019-01-07T09:12:29.189Z,1022.69
2019-01-07T09:13:29.202Z,1022.7
2019-01-07T09:14:29.217Z,1022.72
2019-01-07T09:16:29.243Z,1022.67
2019-01-07T09:17:29.261Z,1022.7
2019-01-07T09:18:29.272Z,1022.7
2019-01-07T09:19:29.285Z,1022.67
2019-01-07T09:20:29.309Z,1022.68
2019-01-07T09:21:29.313Z,1022.68
2019-01-07T09:22:29.327Z,1022.68
2019-01-07T09:23:29.377Z,1022.66
2019-01-07T09:24:33.532Z,1022.64
2019-01-07T09:25:29.368Z,1022.64
2019-01-07T09:26:29.382Z,1022.61
2019-01-07T09:27:29.396Z,1022.6
2019-01-07T09:28:29.410Z,1022.61
2019-01-07T09:29:29.424Z,1022.59
2019-01-07T09:30:29.436Z,1022.57
2019-01-07T09:32:29.465Z,1022.53
2019-01-07T09:33:29.480Z,1022.5
2019-01-07T09:34:29.616Z,1022.51
2019-01-07T09:35:29.627Z,1022.48
2019-01-07T09:36:29.703Z,1022.5
2019-01-07T09:37:29.572Z,1022.46
2019-01-07T09:38:29.575Z,1022.45
2019-01-07T09:39:29.606Z,1022.44
2019-01-07T09:40:29.576Z,1022.4
2019-01-07T09:41:29.732Z,1022.44
2019-01-07T09:42:29.604Z,1022.42
2019-01-07T09:43:29.772Z,1022.42
2019-01-07T09:44:29.651Z,1022.42
2019-01-07T09:45:29.686Z,1022.39
2019-01-07T09:47:29.699Z,1022.38
2019-01-07T09:48:29.738Z,1022.42
2019-01-07T09:49:29.708Z,1022.36
2019-01-07T09:50:29.717Z,1022.32
2019-01-07T09:51:29.732Z,1022.31
2019-01-07T09:52:29.745Z,1022.33
2019-01-07T09:53:29.759Z,1022.32
2019-01-07T09:54:29.774Z,1022.31
2019-01-07T09:55:29.787Z,1022.3
2019-01-07T09:56:29.801Z,1022.34
2019-01-07T09:57:29.816Z,1022.3
2019-01-07T09:58:29.830Z,1022.33
2019-01-07T09:59:29.844Z,1022.27
2019-01-07T10:00:29.858Z,1022.32
2019-01-07T10:01:29.873Z,1022.3
2019-01-07T10:02:29.887Z,1022.22
2019-01-07T10:03:29.901Z,1022.26
2019-01-07T10:04:29.918Z,1022.23
2019-01-07T10:05:29.930Z,1022.24
2019-01-07T10:06:29.944Z,1022.23
2019-01-07T10:07:29.958Z,1022.25
2019-01-07T10:08:29.972Z,1022.21
2019-01-07T10:09:30.080Z,1022.24
2019-01-07T10:10:30.003Z,1022.19
2019-01-07T10:11:30.015Z,1022.23
2019-01-07T10:12:30.031Z,1022.19
2019-01-07T10:13:30.044Z,1022.18
2019-01-07T10:14:30.058Z,1022.13
2019-01-07T10:15:30.073Z,1022.18
2019-01-07T10:16:30.087Z,1022.15
2019-01-07T10:17:30.104Z,1022.15
2019-01-07T10:19:30.134Z,1022.09
2019-01-07T10:20:30.144Z,1022.05
2019-01-07T10:21:30.159Z,1022.09
2019-01-07T10:22:30.273Z,1022.05
2019-01-07T10:23:30.188Z,1022.04
2019-01-07T10:24:30.202Z,1022.03
2019-01-07T10:25:30.216Z,1022.02
2019-01-07T10:26:30.231Z,1022
2019-01-07T10:27:30.245Z,1021.97
2019-01-07T10:28:30.259Z,1021.98
2019-01-07T10:29:30.274Z,1021.98
2019-01-07T10:30:30.341Z,1021.95
2019-01-07T10:31:30.303Z,1021.95
2019-01-07T10:32:30.316Z,1021.97
2019-01-07T10:33:30.331Z,1021.94
2019-01-07T10:35:30.363Z,1021.88
2019-01-07T10:36:30.374Z,1021.9
2019-01-07T10:37:30.389Z,1021.91
2019-01-07T10:38:30.410Z,1021.88
2019-01-07T10:39:30.418Z,1021.92
2019-01-07T10:40:30.433Z,1021.89
2019-01-07T10:41:30.447Z,1021.87
2019-01-07T10:42:30.462Z,1021.81
2019-01-07T10:43:30.476Z,1021.85
2019-01-07T10:44:30.491Z,1021.8
2019-01-07T10:45:30.505Z,1021.79
2019-01-07T10:46:30.520Z,1021.78
2019-01-07T10:47:30.534Z,1021.78
2019-01-07T10:48:30.548Z,1021.8
2019-01-07T10:49:30.563Z,1021.72
2019-01-07T10:51:30.592Z,1021.73
2019-01-07T10:52:30.607Z,1021.74
2019-01-07T10:53:30.621Z,1021.73
2019-01-07T10:54:30.636Z,1021.72
2019-01-07T10:55:30.650Z,1021.72
2019-01-07T10:56:30.665Z,1021.71
2019-01-07T10:57:30.680Z,1021.72
2019-01-07T10:58:30.694Z,1021.69
2019-01-07T10:59:30.709Z,1021.68
2019-01-07T11:00:30.723Z,1021.63
2019-01-07T11:01:30.737Z,1021.63
2019-01-07T11:02:30.755Z,1021.64
2019-01-07T11:03:30.767Z,1021.61
2019-01-07T11:04:30.781Z,1021.6
2019-01-07T11:05:30.799Z,1021.58
2019-01-07T11:07:30.828Z,1021.52
2019-01-07T11:08:30.840Z,1021.53
2019-01-07T11:09:30.854Z,1021.5
2019-01-07T11:10:30.869Z,1021.49
2019-01-07T11:11:30.884Z,1021.5
2019-01-07T11:12:30.898Z,1021.47
2019-01-07T11:13:30.913Z,1021.46
2019-01-07T11:14:30.931Z,1021.47
2019-01-07T11:15:30.943Z,1021.49
2019-01-07T11:16:30.957Z,1021.48
2019-01-07T11:17:30.972Z,1021.47
2019-01-07T11:18:30.987Z,1021.43
2019-01-07T11:19:31.003Z,1021.42
2019-01-07T11:20:31.017Z,1021.37
2019-01-07T11:22:31.047Z,1021.32
2019-01-07T11:23:31.061Z,1021.33
2019-01-07T11:24:31.127Z,1021.3
2019-01-07T11:25:31.091Z,1021.31
2019-01-07T11:26:31.107Z,1021.3
2019-01-07T11:27:31.120Z,1021.25
2019-01-07T11:28:31.136Z,1021.26
2019-01-07T11:29:31.150Z,1021.27
2019-01-07T11:30:31.164Z,1021.22
2019-01-07T11:31:31.180Z,1021.22
2019-01-07T11:32:31.195Z,1021.21
2019-01-07T11:33:31.213Z,1021.19
2019-01-07T11:34:31.225Z,1021.18
2019-01-07T11:35:31.240Z,1021.19
2019-01-07T11:36:31.254Z,1021.16
2019-01-07T11:37:31.270Z,1021.18
2019-01-07T11:38:31.284Z,1021.14
2019-01-07T11:39:31.299Z,1021.13
2019-01-07T11:40:31.314Z,1021.09
2019-01-07T11:41:31.329Z,1021.07
2019-01-07T11:42:31.344Z,1021.04
2019-01-07T11:43:31.359Z,1021.04
2019-01-07T11:44:31.375Z,1021
2019-01-07T11:45:31.388Z,1021
2019-01-07T11:46:31.405Z,1020.98
2019-01-07T11:47:31.421Z,1020.93
2019-01-07T11:48:31.434Z,1020.91
2019-01-07T11:49:31.452Z,1020.92
2019-01-07T11:50:31.464Z,1020.91
2019-01-07T11:51:31.480Z,1020.86
2019-01-07T11:52:31.493Z,1020.87
2019-01-07T11:54:31.529Z,1020.84
2019-01-07T11:55:31.540Z,1020.82
2019-01-07T11:56:31.555Z,1020.85
2019-01-07T11:57:31.569Z,1020.82
2019-01-07T11:58:31.584Z,1020.78
2019-01-07T11:59:31.600Z,1020.79
2019-01-07T12:00:31.613Z,1020.76
2019-01-07T12:01:31.629Z,1020.75
2019-01-07T12:02:31.643Z,1020.71
2019-01-07T12:03:31.658Z,1020.73
2019-01-07T12:04:31.674Z,1020.74
2019-01-07T12:05:31.689Z,1020.74
2019-01-07T12:06:31.704Z,1020.71
2019-01-07T12:07:31.719Z,1020.73
2019-01-07T12:08:31.734Z,1020.69
2019-01-07T12:10:31.764Z,1020.7
2019-01-07T12:11:31.779Z,1020.72
2019-01-07T12:12:31.794Z,1020.71
2019-01-07T12:13:31.809Z,1020.7
2019-01-07T12:14:31.824Z,1020.7
2019-01-07T12:15:31.839Z,1020.7
2019-01-07T12:16:31.855Z,1020.69
2019-01-07T12:17:31.870Z,1020.67
2019-01-07T12:18:31.884Z,1020.64
2019-01-07T12:19:31.900Z,1020.63
2019-01-07T12:20:31.915Z,1020.59
2019-01-07T12:21:31.931Z,1020.59
2019-01-07T12:22:31.947Z,1020.62
2019-01-07T12:23:32.027Z,1020.59
2019-01-07T12:24:31.977Z,1020.54
2019-01-07T12:26:32.006Z,1020.51
2019-01-07T12:27:32.026Z,1020.54
2019-01-07T12:28:32.037Z,1020.52
2019-01-07T12:29:32.076Z,1020.52
2019-01-07T12:30:32.068Z,1020.55
2019-01-07T12:31:32.082Z,1020.53
2019-01-07T12:32:32.100Z,1020.53
2019-01-07T12:33:32.122Z,1020.54
2019-01-07T12:34:32.176Z,1020.51
2019-01-07T12:35:32.785Z,1020.49
2019-01-07T12:36:32.173Z,1020.51
2019-01-07T12:37:32.174Z,1020.5
2019-01-07T12:38:32.188Z,1020.48
2019-01-07T12:39:32.205Z,1020.46
2019-01-07T12:40:32.218Z,1020.43
2019-01-07T12:42:32.252Z,1020.43
2019-01-07T12:43:32.265Z,1020.41
2019-01-07T12:44:32.279Z,1020.39
2019-01-07T12:45:32.295Z,1020.41
2019-01-07T12:46:32.429Z,1020.4
2019-01-07T12:47:32.344Z,1020.36
2019-01-07T12:48:32.353Z,1020.34
2019-01-07T12:49:32.356Z,1020.33